Time;durP1;ratioP1;P1;durP2;ratioP2;P2;SDS_P1;SDS_P2;PMS_P1;PMS_P2;Temp;Humidity;BMP_temperature;BMP_pressure;BME280_temperature;BME280_humidity;BME280_pressure;Samples;Min_cycle;Max_cycle;Signal;HPM_P1;HPM_P2
2022/08/28 00:00:47;;;;;;;1.25;1.13;;;22.50;95.00;;;;;;5008550;28;20054;-76
2022/08/28 00:03:13;;;;;;;3.23;1.60;;;22.40;95.50;;;;;;5008718;28;20450;-76
2022/08/28 00:05:40;;;;;;;0.50;0.50;;;22.40;96.00;;;;;;5008681;28;20026;-75
2022/08/28 00:08:07;;;;;;;0.73;0.73;;;22.30;96.20;;;;;;5008000;28;20037;-75
2022/08/28 00:10:34;;;;;;;0.88;0.85;;;22.20;96.00;;;;;;5008399;28;20117;-75
2022/08/28 00:13:00;;;;;;;;;;;22.20;96.50;;;;;;5002009;28;20061;-75
2022/08/28 00:15:32;;;;;;;0.40;0.40;;;22.20;96.30;;;;;;4990193;28;19988;-75
2022/08/28 00:17:59;;;;;;;1.00;1.00;;;22.20;96.20;;;;;;4991449;28;20038;-75
2022/08/28 00:20:28;;;;;;;2.05;1.15;;;22.30;96.30;;;;;;4989140;28;20322;-75
2022/08/28 00:22:56;;;;;;;2.60;1.15;;;22.20;97.00;;;;;;4990952;28;20043;-75
2022/08/28 00:25:24;;;;;;;0.82;0.82;;;21.80;96.80;;;;;;4990229;28;20023;-76
2022/08/28 00:27:56;;;;;;;3.85;1.65;;;22.20;96.30;;;;;;4996968;28;20058;-75
2022/08/28 00:30:22;;;;;;;0.88;0.88;;;22.20;96.40;;;;;;5008213;28;20018;-76
2022/08/28 00:32:48;;;;;;;;;;;22.20;96.70;;;;;;5009158;28;20049;-76
2022/08/28 00:35:16;;;;;;;1.30;0.50;;;22.20;98.10;;;;;;4990639;28;19909;-75
2022/08/28 00:37:42;;;;;;;0.57;0.57;;;22.30;97.60;;;;;;4990650;28;20378;-76
2022/08/28 00:40:09;;;;;;;5.25;2.60;;;22.10;97.20;;;;;;4990164;28;20131;-75
2022/08/28 00:42:35;;;;;;;;;;;22.20;97.00;;;;;;4997725;28;20121;-75
2022/08/28 00:45:01;;;;;;;0.52;0.50;;;22.20;96.70;;;;;;5009815;28;19909;-76
2022/08/28 00:47:27;;;;;;;1.47;1.37;;;22.20;96.40;;;;;;5009392;28;20117;-75
2022/08/28 00:50:02;;;;;;;16.25;1.52;;;22.30;96.50;;;;;;5008190;28;20109;-75
2022/08/28 00:52:28;;;;;;;8.80;0.75;;;22.30;96.40;;;;;;5007770;28;20494;-76
2022/08/28 00:54:58;;;;;;;1.47;1.37;;;22.30;96.90;;;;;;5007226;28;20036;-75
2022/08/28 00:57:28;;;;;;;0.50;0.50;;;22.30;96.30;;;;;;5005520;28;20458;-74
2022/08/28 00:59:54;;;;;;;0.20;0.20;;;22.30;96.30;;;;;;4988251;28;20428;-75
2022/08/28 01:02:20;;;;;;;1.53;1.43;;;22.30;96.20;;;;;;4989541;28;20038;-75
2022/08/28 01:04:48;;;;;;;1.42;1.08;;;22.40;96.20;;;;;;5006058;28;20031;-75
2022/08/28 01:07:15;;;;;;;0.30;0.30;;;22.40;96.30;;;;;;5007905;28;20033;-76
2022/08/28 01:09:45;;;;;;;0.93;0.80;;;22.40;96.40;;;;;;5009578;28;20097;-75
2022/08/28 01:12:21;;;;;;;0.32;0.32;;;22.30;96.50;;;;;;5000068;28;20037;-75
2022/08/28 01:14:49;;;;;;;1.30;0.55;;;22.30;96.60;;;;;;4988398;28;20134;-76
2022/08/28 01:17:17;;;;;;;0.50;0.50;;;22.30;96.70;;;;;;4989556;28;20035;-76
2022/08/28 01:19:51;;;;;;;8.30;2.35;;;22.40;96.30;;;;;;4989631;28;20480;-76
2022/08/28 01:22:29;;;;;;;1.15;1.02;;;22.30;96.40;;;;;;4990471;28;20532;-76
2022/08/28 01:24:57;;;;;;;0.47;0.47;;;22.30;96.70;;;;;;4988322;28;20222;-77
2022/08/28 01:27:23;;;;;;;0.77;0.77;;;22.30;96.20;;;;;;4995125;28;20072;-75
2022/08/28 01:29:51;;;;;;;0.30;0.30;;;22.40;96.40;;;;;;5008747;28;20054;-75
2022/08/28 01:32:39;;;;;;;2.63;1.48;;;22.30;96.30;;;;;;5005002;28;20038;-75
2022/08/28 01:35:09;;;;;;;0.30;0.30;;;22.30;96.80;;;;;;4988963;28;20038;-76
2022/08/28 01:37:36;;;;;;;0.57;0.57;;;22.30;96.80;;;;;;4989667;28;20446;-76
2022/08/28 01:40:03;;;;;;;0.95;0.93;;;22.20;97.30;;;;;;4987483;28;20121;-75
2022/08/28 01:42:29;;;;;;;0.63;0.63;;;22.10;97.50;;;;;;4987592;28;20576;-75
2022/08/28 01:44:56;;;;;;;0.30;0.30;;;22.10;97.70;;;;;;4989249;28;20106;-75
2022/08/28 01:47:22;;;;;;;2.05;1.85;;;22.00;98.00;;;;;;4987596;28;20125;-76
2022/08/28 01:49:48;;;;;;;0.80;0.80;;;22.10;97.80;;;;;;4989017;28;20101;-76
2022/08/28 01:52:13;;;;;;;1.13;1.10;;;22.00;98.00;;;;;;4989858;28;20075;-75
2022/08/28 01:54:40;;;;;;;5.00;2.30;;;22.10;98.20;;;;;;4988840;28;20042;-75
2022/08/28 01:57:06;;;;;;;0.50;0.50;;;22.10;98.20;;;;;;4997353;28;20048;-75
2022/08/28 01:59:32;;;;;;;1.23;1.17;;;22.10;98.10;;;;;;5007002;28;20487;-75
2022/08/28 02:01:58;;;;;;;2.38;1.05;;;22.10;98.10;;;;;;5004469;28;20382;-75
2022/08/28 02:04:23;;;;;;;0.73;0.73;;;22.10;98.20;;;;;;4990211;28;20026;-75
2022/08/28 02:06:49;;;;;;;1.77;1.67;;;22.10;98.00;;;;;;4988739;28;20034;-76
2022/08/28 02:09:15;;;;;;;0.70;0.70;;;22.10;97.50;;;;;;4989086;28;20026;-76
2022/08/28 02:11:42;;;;;;;0.20;0.20;;;22.10;97.30;;;;;;4999290;28;20049;-75
2022/08/28 02:14:07;;;;;;;;;;;22.10;97.30;;;;;;5007168;28;20489;-76
2022/08/28 02:16:33;;;;;;;0.30;0.30;;;22.00;97.20;;;;;;5008353;28;19920;-76
2022/08/28 02:18:59;;;;;;;1.80;1.20;;;22.10;97.30;;;;;;5008119;28;20041;-75
2022/08/28 02:21:24;;;;;;;0.37;0.37;;;22.20;97.10;;;;;;5003270;28;20031;-76
2022/08/28 02:23:50;;;;;;;1.23;1.13;;;22.10;98.00;;;;;;4989726;28;20045;-76
2022/08/28 02:26:17;;;;;;;0.50;0.50;;;22.10;97.00;;;;;;4994179;28;20267;-76
2022/08/28 02:28:42;;;;;;;0.68;0.68;;;22.10;97.80;;;;;;5006464;28;20030;-76
2022/08/28 02:31:08;;;;;;;0.37;0.37;;;22.10;97.80;;;;;;5007432;28;20397;-76
2022/08/28 02:33:39;;;;;;;1.00;0.85;;;22.10;98.00;;;;;;4987727;28;20022;-76
2022/08/28 02:36:07;;;;;;;0.32;0.32;;;22.10;98.00;;;;;;4987173;28;20083;-76
2022/08/28 02:38:33;;;;;;;1.42;0.40;;;22.00;98.10;;;;;;4988297;28;20018;-75
2022/08/28 02:40:59;;;;;;;0.57;0.57;;;22.00;98.00;;;;;;4997285;28;20060;-76
2022/08/28 02:43:25;;;;;;;1.83;1.70;;;22.10;97.70;;;;;;5007850;28;20061;-75
2022/08/28 02:45:52;;;;;;;1.15;1.10;;;22.10;97.90;;;;;;5007927;28;20057;-76
2022/08/28 02:48:17;;;;;;;1.03;0.97;;;22.10;98.10;;;;;;5008387;28;20450;-76
2022/08/28 02:50:45;;;;;;;1.60;1.37;;;22.00;96.60;;;;;;5004363;28;20330;-76
2022/08/28 02:53:11;;;;;;;0.45;0.45;;;22.20;96.90;;;;;;5002635;28;20495;-76
2022/08/28 02:55:36;;;;;;;1.50;0.67;;;22.10;96.90;;;;;;4991093;28;20038;-76
2022/08/28 02:58:02;;;;;;;1.13;1.03;;;22.20;96.80;;;;;;5007701;28;20105;-76
2022/08/28 03:00:28;;;;;;;0.40;0.40;;;22.20;96.80;;;;;;5007532;28;20473;-76
2022/08/28 03:02:54;;;;;;;0.32;0.30;;;22.20;96.80;;;;;;5004666;28;20041;-76
2022/08/28 03:05:22;;;;;;;0.50;0.50;;;22.30;96.80;;;;;;5005703;28;20499;-76
2022/08/28 03:07:49;;;;;;;3.85;1.00;;;22.30;96.80;;;;;;5007781;28;20093;-76
2022/08/28 03:10:15;;;;;;;0.40;0.40;;;22.30;97.00;;;;;;4999710;28;20026;-76
2022/08/28 03:12:41;;;;;;;0.47;0.47;;;22.20;97.00;;;;;;4986382;28;20035;-76
2022/08/28 03:15:07;;;;;;;1.20;1.10;;;22.30;96.90;;;;;;4987918;28;20041;-75
2022/08/28 03:17:35;;;;;;;1.58;1.48;;;22.30;96.50;;;;;;4989842;28;20521;-75
2022/08/28 03:20:02;;;;;;;1.65;1.55;;;22.30;96.30;;;;;;4990503;28;20129;-76
2022/08/28 03:25:12;;;;;;;0.30;0.30;;;22.40;96.10;;;;;;4996451;28;19958;-76
2022/08/28 03:27:38;;;;;;;1.10;1.10;;;22.40;96.00;;;;;;5009211;28;20455;-76
2022/08/28 03:30:06;;;;;;;0.30;0.30;;;22.50;96.00;;;;;;5010182;28;20037;-75
2022/08/28 03:32:32;;;;;;;0.70;0.70;;;22.40;96.00;;;;;;5006337;28;20037;-76
2022/08/28 03:34:58;;;;;;;0.30;0.30;;;22.50;96.20;;;;;;5009372;28;20026;-76
2022/08/28 03:37:24;;;;;;;0.53;0.53;;;22.50;96.50;;;;;;5010415;28;20131;-75
2022/08/28 03:39:50;;;;;;;0.57;0.57;;;22.40;96.50;;;;;;5002188;28;20034;-75
2022/08/28 03:42:18;;;;;;;0.30;0.30;;;22.40;96.00;;;;;;4989381;28;20038;-75
2022/08/28 03:44:43;;;;;;;0.50;0.50;;;22.50;95.90;;;;;;4990867;28;20053;-75
2022/08/28 03:47:11;;;;;;;0.87;0.83;;;22.40;95.70;;;;;;4990652;28;20069;-75
2022/08/28 03:49:36;;;;;;;0.60;0.60;;;22.50;95.50;;;;;;4993341;28;20026;-76
2022/08/28 03:52:02;;;;;;;1.43;1.30;;;22.50;95.10;;;;;;5007290;28;20130;-76
2022/08/28 03:54:30;;;;;;;0.37;0.37;;;22.50;94.80;;;;;;5005799;28;20027;-76
2022/08/28 03:56:56;;;;;;;2.47;1.42;;;22.60;94.80;;;;;;4990659;28;20264;-75
2022/08/28 03:59:21;;;;;;;0.43;0.43;;;22.70;95.70;;;;;;4990903;28;20026;-75
2022/08/28 04:01:47;;;;;;;0.70;0.70;;;22.70;96.00;;;;;;4991460;28;20429;-77
2022/08/28 04:04:12;;;;;;;1.37;0.70;;;22.60;96.10;;;;;;4989457;28;20079;-76
2022/08/28 04:06:38;;;;;;;0.60;0.60;;;22.60;96.60;;;;;;4989047;28;20434;-76
2022/08/28 04:09:04;;;;;;;1.03;0.93;;;22.50;96.70;;;;;;4995450;28;20063;-76
2022/08/28 04:11:30;;;;;;;2.78;1.35;;;22.50;96.60;;;;;;5009951;28;20048;-76
2022/08/28 04:13:56;;;;;;;1.40;1.30;;;22.50;96.80;;;;;;5008583;28;20047;-76
2022/08/28 04:16:22;;;;;;;1.38;0.93;;;22.50;97.10;;;;;;5010162;28;20066;-76
2022/08/28 04:18:51;;;;;;;0.30;0.30;;;22.50;98.60;;;;;;5009047;28;20432;-76
2022/08/28 04:21:19;;;;;;;2.20;1.95;;;22.50;99.90;;;;;;5006518;28;20056;-76
2022/08/28 04:23:46;;;;;;;1.27;1.17;;;22.30;99.90;;;;;;5008061;28;20065;-76
2022/08/28 04:26:18;;;;;;;0.65;0.60;;;22.10;99.90;;;;;;5009730;28;20478;-76
2022/08/28 04:28:45;;;;;;;0.70;0.70;;;22.00;99.90;;;;;;5008726;28;20037;-76
2022/08/28 04:31:10;;;;;;;0.75;0.75;;;21.90;99.90;;;;;;5007608;28;20034;-76
2022/08/28 04:33:36;;;;;;;0.30;0.30;;;21.80;99.90;;;;;;5008481;28;20044;-76
2022/08/28 04:36:09;;;;;;;0.68;0.68;;;21.70;99.90;;;;;;5008345;28;20061;-76
2022/08/28 04:38:36;;;;;;;3.50;1.75;;;21.60;99.90;;;;;;5008043;28;20041;-76
2022/08/28 04:41:03;;;;;;;;;;;21.50;99.90;;;;;;5009717;28;20098;-76
2022/08/28 04:43:28;;;;;;;0.75;0.75;;;21.50;99.90;;;;;;5008060;28;19960;-76
2022/08/28 04:45:54;;;;;;;4.33;2.27;;;21.40;99.90;;;;;;5009606;28;20053;-76
2022/08/28 04:48:19;;;;;;;1.37;1.27;;;21.50;99.90;;;;;;5008323;28;20033;-76
2022/08/28 04:50:47;;;;;;;4.50;1.37;;;21.50;99.90;;;;;;5009154;28;20113;-77
2022/08/28 04:53:15;;;;;;;1.23;1.17;;;21.50;99.90;;;;;;5007917;28;20109;-76
2022/08/28 04:55:46;;;;;;;0.95;0.95;;;21.50;99.90;;;;;;4989671;28;20132;-76
2022/08/28 04:58:12;;;;;;;0.30;0.30;;;21.50;99.90;;;;;;4988521;28;20018;-76
2022/08/28 05:00:40;;;;;;;0.93;0.83;;;21.50;99.90;;;;;;5006290;28;20045;-76
2022/08/28 05:03:06;;;;;;;0.57;0.57;;;21.50;99.90;;;;;;5007711;28;20282;-76
2022/08/28 05:05:33;;;;;;;1.10;1.00;;;21.50;99.90;;;;;;5008961;28;20022;-76
2022/08/28 05:07:58;;;;;;;0.90;0.90;;;21.50;99.90;;;;;;5003512;28;20092;-76
2022/08/28 05:10:24;;;;;;;0.47;0.47;;;21.50;99.90;;;;;;4989714;28;20080;-76
2022/08/28 05:12:50;;;;;;;3.20;2.53;;;21.50;99.90;;;;;;4987946;28;20073;-76
2022/08/28 05:15:16;;;;;;;2.55;0.85;;;21.40;99.90;;;;;;4988335;28;20065;-77
2022/08/28 05:17:44;;;;;;;3.00;1.10;;;21.50;99.90;;;;;;4987529;28;20030;-76
2022/08/28 05:20:10;;;;;;;0.52;0.52;;;21.50;99.90;;;;;;5006445;28;20351;-76
2022/08/28 05:22:36;;;;;;;0.80;0.80;;;21.50;99.90;;;;;;4996482;28;20038;-76
2022/08/28 05:25:01;;;;;;;1.50;1.10;;;21.50;99.90;;;;;;4989870;28;20026;-76
2022/08/28 05:27:27;;;;;;;0.60;0.60;;;21.50;99.90;;;;;;4997401;28;20618;-76
2022/08/28 05:29:53;;;;;;;2.40;1.90;;;21.50;99.90;;;;;;5007456;28;20526;-76
2022/08/28 05:32:20;;;;;;;0.83;0.70;;;21.50;99.90;;;;;;5008494;28;20046;-75
2022/08/28 05:34:46;;;;;;;0.70;0.70;;;21.40;99.90;;;;;;5008882;28;20026;-76
2022/08/28 05:37:12;;;;;;;0.47;0.47;;;21.40;99.90;;;;;;5005806;28;20037;-76
2022/08/28 05:39:38;;;;;;;0.55;0.50;;;21.40;99.90;;;;;;5004863;28;20061;-75
2022/08/28 05:42:04;;;;;;;0.57;0.57;;;21.40;99.90;;;;;;5008268;28;20096;-75
2022/08/28 05:44:30;;;;;;;6.88;2.65;;;21.40;99.90;;;;;;5007092;28;20038;-76
2022/08/28 05:46:55;;;;;;;0.80;0.80;;;21.40;99.90;;;;;;4993694;28;20565;-76
2022/08/28 05:49:21;;;;;;;3.13;1.87;;;21.40;99.90;;;;;;4988635;28;20046;-75
2022/08/28 05:51:48;;;;;;;1.03;1.00;;;21.40;99.90;;;;;;4988714;28;20470;-75
2022/08/28 05:54:14;;;;;;;;;;;21.30;99.90;;;;;;5004773;28;20062;-76
2022/08/28 05:56:42;;;;;;;5.10;1.10;;;21.20;99.90;;;;;;5006775;28;19993;-75
2022/08/28 05:59:09;;;;;;;6.13;1.70;;;21.10;99.90;;;;;;5008554;28;20079;-76
2022/08/28 06:01:41;;;;;;;20.25;2.60;;;21.20;99.90;;;;;;4999521;28;20488;-76
2022/08/28 06:04:10;;;;;;;1.88;1.45;;;21.30;99.90;;;;;;4988698;28;20026;-77
2022/08/28 06:06:40;;;;;;;1.73;1.63;;;21.30;99.90;;;;;;4988661;28;20075;-76
2022/08/28 06:09:14;;;;;;;0.43;0.43;;;21.40;99.90;;;;;;4990892;28;20461;-76
2022/08/28 06:11:41;;;;;;;19.95;1.98;;;21.50;99.90;;;;;;4989856;28;20042;-77
2022/08/28 06:14:09;;;;;;;0.93;0.93;;;21.50;99.90;;;;;;4987720;28;20268;-77
2022/08/28 06:16:38;;;;;;;0.50;0.50;;;21.60;99.90;;;;;;4989863;28;20030;-76
2022/08/28 06:19:04;;;;;;;2.22;0.95;;;21.70;99.90;;;;;;4988863;28;20030;-76
2022/08/28 06:21:30;;;;;;;0.55;0.55;;;21.80;99.90;;;;;;4988088;28;20046;-76
2022/08/28 06:23:56;;;;;;;0.53;0.53;;;21.80;99.90;;;;;;4988690;28;20038;-77
2022/08/28 06:26:22;;;;;;;4.57;2.23;;;21.80;99.90;;;;;;4989039;28;20116;-76
2022/08/28 06:28:47;;;;;;;2.80;1.47;;;21.80;99.90;;;;;;4989252;28;20287;-76
2022/08/28 06:31:13;;;;;;;2.60;1.43;;;21.80;99.90;;;;;;5002347;28;20082;-76
2022/08/28 06:33:39;;;;;;;0.40;0.40;;;21.80;99.90;;;;;;5008307;28;20358;-76
2022/08/28 06:36:06;;;;;;;1.00;0.90;;;21.70;99.90;;;;;;5008354;28;20264;-76
2022/08/28 06:38:32;;;;;;;1.95;1.50;;;21.70;99.90;;;;;;5003713;28;20034;-76
2022/08/28 06:40:58;;;;;;;1.57;1.47;;;21.70;99.90;;;;;;5008124;28;20192;-76
2022/08/28 06:43:27;;;;;;;1.05;0.95;;;21.80;99.90;;;;;;5008126;28;20477;-76
2022/08/28 06:45:55;;;;;;;2.60;1.80;;;21.80;99.90;;;;;;5000385;28;20041;-76
2022/08/28 06:48:23;;;;;;;0.95;0.90;;;21.80;99.90;;;;;;4989257;28;20033;-75
2022/08/28 06:50:51;;;;;;;1.08;1.02;;;21.80;99.90;;;;;;4987770;28;20045;-76
2022/08/28 06:53:20;;;;;;;0.40;0.40;;;21.80;99.90;;;;;;4987238;28;20061;-76
2022/08/28 06:56:06;;;;;;;0.70;0.63;;;21.90;99.90;;;;;;4986895;28;20023;-76
2022/08/28 06:58:32;;;;;;;0.40;0.40;;;22.00;99.90;;;;;;4987755;28;20667;-75
2022/08/28 07:01:01;;;;;;;1.98;1.38;;;22.10;99.90;;;;;;4988557;28;20045;-75
2022/08/28 07:03:29;;;;;;;1.13;1.10;;;22.20;99.90;;;;;;4988277;28;20478;-76
2022/08/28 07:05:56;;;;;;;0.93;0.90;;;22.30;99.90;;;;;;4988596;28;20054;-76
2022/08/28 07:08:24;;;;;;;3.25;1.70;;;22.40;99.90;;;;;;5007579;28;20022;-76
2022/08/28 07:10:49;;;;;;;0.70;0.70;;;22.40;99.90;;;;;;5008308;28;20064;-76
2022/08/28 07:13:15;;;;;;;1.30;1.03;;;22.50;99.90;;;;;;5007215;28;20065;-76
2022/08/28 07:15:40;;;;;;;1.80;1.30;;;22.60;99.90;;;;;;5007034;28;20056;-76
2022/08/28 07:18:06;;;;;;;1.80;1.63;;;22.70;99.90;;;;;;5005753;28;20041;-76
2022/08/28 07:20:31;;;;;;;0.80;0.80;;;22.80;99.90;;;;;;5006344;28;20393;-76
2022/08/28 07:22:57;;;;;;;0.40;0.40;;;22.90;99.90;;;;;;4994073;28;20039;-76
2022/08/28 07:25:23;;;;;;;2.93;1.87;;;23.00;99.90;;;;;;4988314;28;20034;-77
2022/08/28 07:27:49;;;;;;;0.57;0.57;;;23.00;99.90;;;;;;4987601;28;20277;-76
2022/08/28 07:30:14;;;;;;;1.20;0.90;;;23.00;99.90;;;;;;4998376;28;20074;-76
2022/08/28 07:32:40;;;;;;;1.40;1.30;;;23.00;99.90;;;;;;5007535;28;20437;-76
2022/08/28 07:35:06;;;;;;;0.63;0.53;;;22.90;99.90;;;;;;5006486;28;20030;-77
2022/08/28 07:37:31;;;;;;;1.00;0.95;;;22.70;99.90;;;;;;4986858;28;20131;-77
2022/08/28 07:39:57;;;;;;;1.33;1.23;;;22.60;99.90;;;;;;4987465;28;20038;-77
2022/08/28 07:45:08;;;;;;;0.35;0.35;;;22.60;99.90;;;;;;4987652;28;20144;-76
2022/08/28 07:47:33;;;;;;;;;;;22.60;99.90;;;;;;4989434;28;20034;-76
2022/08/28 07:49:59;;;;;;;0.77;0.77;;;22.70;99.90;;;;;;4987281;28;19913;-76
2022/08/28 07:52:26;;;;;;;1.63;1.25;;;22.80;99.90;;;;;;5003450;28;20034;-78
2022/08/28 07:54:53;;;;;;;1.58;1.27;;;22.90;99.90;;;;;;5005469;28;20494;-77
2022/08/28 07:57:20;;;;;;;1.77;1.20;;;23.00;99.90;;;;;;5004193;28;20393;-75
2022/08/28 07:59:46;;;;;;;4.65;2.53;;;23.10;99.90;;;;;;5003337;28;20156;-77
2022/08/28 08:02:12;;;;;;;0.50;0.50;;;23.20;99.90;;;;;;5006712;28;20029;-76
2022/08/28 08:04:38;;;;;;;0.53;0.53;;;23.40;99.90;;;;;;5009818;28;20022;-76
2022/08/28 08:07:04;;;;;;;0.75;0.75;;;23.60;99.90;;;;;;5009337;28;20029;-76
2022/08/28 08:09:30;;;;;;;0.40;0.40;;;23.70;99.90;;;;;;5008793;28;20275;-77
2022/08/28 08:11:56;;;;;;;0.85;0.85;;;23.80;99.90;;;;;;5008836;28;20252;-77
2022/08/28 08:14:22;;;;;;;1.90;1.00;;;23.80;99.90;;;;;;5010247;28;20033;-77
2022/08/28 08:16:51;;;;;;;0.65;0.65;;;23.70;99.90;;;;;;5008026;28;20038;-77
2022/08/28 08:19:17;;;;;;;0.77;0.77;;;23.70;99.90;;;;;;5008687;28;20057;-77
2022/08/28 08:21:44;;;;;;;;;;;23.70;99.90;;;;;;4995245;28;20095;-77
2022/08/28 08:24:14;;;;;;;0.45;0.45;;;23.60;99.90;;;;;;4988560;28;19944;-77
2022/08/28 08:26:44;;;;;;;2.78;2.58;;;23.70;99.90;;;;;;4991257;28;20045;-77
2022/08/28 08:29:11;;;;;;;20.80;1.85;;;23.80;99.90;;;;;;4991645;28;20033;-77
2022/08/28 08:31:37;;;;;;;1.52;1.27;;;24.20;99.90;;;;;;4990009;28;20474;-76
2022/08/28 08:34:04;;;;;;;0.65;0.65;;;24.40;99.90;;;;;;4990317;28;20027;-76
2022/08/28 08:36:31;;;;;;;;;;;24.70;99.90;;;;;;5006834;28;20150;-76
2022/08/28 08:38:58;;;;;;;0.60;0.60;;;24.90;99.90;;;;;;5009660;28;19936;-76
2022/08/28 08:41:38;;;;;;;5.05;0.77;;;25.00;99.90;;;;;;5007790;28;20056;-76
2022/08/28 08:44:27;;;;;;;1.60;1.45;;;25.00;99.90;;;;;;5009517;28;20034;-77
2022/08/28 08:47:02;;;;;;;1.40;1.20;;;25.30;99.90;;;;;;5007616;28;20513;-76
2022/08/28 08:49:38;;;;;;;3.83;1.20;;;25.60;99.90;;;;;;5007475;28;20026;-77
2022/08/28 08:52:49;;;;;;;0.95;0.80;;;26.10;99.90;;;;;;4988509;28;20127;-76
2022/08/28 08:55:36;;;;;;;1.48;1.38;;;26.40;99.10;;;;;;5010581;28;20046;-76
2022/08/28 08:58:08;;;;;;;0.93;0.93;;;26.90;98.50;;;;;;4968996;28;20409;-76
2022/08/28 09:00:41;;;;;;;0.50;0.50;;;27.10;97.10;;;;;;4979858;28;20616;-77
2022/08/28 09:03:22;;;;;;;0.88;0.88;;;27.00;96.30;;;;;;4989625;28;20034;-77
2022/08/28 09:05:53;;;;;;;1.60;0.65;;;26.90;93.50;;;;;;5003938;28;20042;-77
2022/08/28 09:08:34;;;;;;;1.63;1.52;;;26.70;93.40;;;;;;5009101;28;20037;-77
2022/08/28 09:11:05;;;;;;;1.42;1.33;;;26.70;93.00;;;;;;5007063;28;20029;-77
2022/08/28 09:13:46;;;;;;;2.05;1.10;;;26.60;92.20;;;;;;5009001;28;20116;-76
2022/08/28 09:16:37;;;;;;;1.70;1.60;;;26.50;95.00;;;;;;4988937;28;20125;-77
2022/08/28 09:19:05;;;;;;;0.68;0.68;;;26.20;95.80;;;;;;4990930;28;20033;-77
2022/08/28 09:21:33;;;;;;;0.30;0.30;;;26.00;95.50;;;;;;5008723;28;20033;-76
2022/08/28 09:24:02;;;;;;;0.77;0.77;;;25.90;95.80;;;;;;5008237;28;20056;-75
2022/08/28 09:26:28;;;;;;;1.20;0.98;;;25.80;95.30;;;;;;5007240;28;20122;-76
2022/08/28 09:29:04;;;;;;;0.93;0.88;;;25.80;94.80;;;;;;5008678;28;20105;-76
2022/08/28 09:31:37;;;;;;;0.30;0.30;;;25.80;92.60;;;;;;5015553;28;20117;-75
2022/08/28 09:34:27;;;;;;;0.30;0.30;;;25.80;92.30;;;;;;4972277;28;20034;-76
2022/08/28 09:36:54;;;;;;;0.73;0.73;;;25.90;92.50;;;;;;5008002;28;20054;-76
2022/08/28 09:39:36;;;;;;;12.15;1.42;;;25.90;93.30;;;;;;5006968;28;20120;-76
2022/08/28 09:45:19;;;;;;;1.38;1.27;;;25.90;91.60;;;;;;5008990;28;20538;-76
2022/08/28 09:47:48;;;;;;;0.98;0.77;;;25.90;91.30;;;;;;5007284;28;20112;-75
2022/08/28 09:50:14;;;;;;;1.85;1.38;;;26.00;91.00;;;;;;4992695;28;20520;-76
2022/08/28 09:52:40;;;;;;;1.63;1.03;;;26.00;91.30;;;;;;4987492;28;20039;-75
2022/08/28 09:55:09;;;;;;;6.93;2.75;;;26.10;91.40;;;;;;4988679;28;20588;-76
2022/08/28 09:57:35;;;;;;;0.80;0.75;;;26.20;91.60;;;;;;4987442;28;20038;-76
2022/08/28 10:00:01;;;;;;;2.75;1.33;;;26.20;91.20;;;;;;4988086;28;20385;-76
2022/08/28 10:02:56;;;;;;;1.33;1.23;;;26.30;91.70;;;;;;4988658;28;20319;-76
2022/08/28 10:05:35;;;;;;;1.65;0.77;;;26.30;91.20;;;;;;4981005;28;20039;-77
2022/08/28 10:08:09;;;;;;;0.80;0.63;;;26.30;90.60;;;;;;4969515;28;20031;-77
2022/08/28 10:10:47;;;;;;;0.57;0.57;;;26.50;91.10;;;;;;4970050;28;20034;-77
2022/08/28 10:13:22;;;;;;;1.35;1.25;;;26.90;90.60;;;;;;4970881;28;20070;-76
2022/08/28 10:15:54;;;;;;;0.30;0.30;;;27.20;89.70;;;;;;4968123;28;20038;-76
2022/08/28 10:18:46;;;;;;;0.40;0.40;;;27.50;88.70;;;;;;4971539;28;20106;-77
2022/08/28 10:21:45;;;;;;;0.85;0.57;;;27.70;88.80;;;;;;4987244;28;20031;-76
2022/08/28 10:24:32;;;;;;;0.40;0.35;;;28.00;87.10;;;;;;5021007;28;20046;-77
2022/08/28 10:27:12;;;;;;;1.75;1.13;;;28.50;86.40;;;;;;4987581;28;20035;-76
2022/08/28 10:29:59;;;;;;;1.40;1.30;;;28.60;85.50;;;;;;4986885;28;20037;-76
2022/08/28 10:32:30;;;;;;;0.30;0.30;;;28.80;84.30;;;;;;4987276;28;20172;-76
2022/08/28 10:35:01;;;;;;;1.15;1.08;;;28.90;83.10;;;;;;4972002;28;20035;-76
2022/08/28 10:37:48;;;;;;;0.50;0.50;;;28.80;82.10;;;;;;4967915;28;20054;-77
2022/08/28 10:40:20;;;;;;;0.40;0.40;;;28.70;83.10;;;;;;4969375;28;20035;-77
2022/08/28 10:42:56;;;;;;;0.50;0.50;;;28.60;82.30;;;;;;4969925;28;20767;-77
2022/08/28 10:45:23;;;;;;;1.05;1.00;;;28.60;82.10;;;;;;4978172;28;20037;-75
2022/08/28 10:47:56;;;;;;;0.93;0.60;;;28.70;82.40;;;;;;4988091;28;20101;-77
2022/08/28 10:50:53;;;;;;;1.90;1.40;;;28.60;81.10;;;;;;4986238;28;20117;-76
2022/08/28 10:53:24;;;;;;;0.75;0.75;;;28.40;81.80;;;;;;5030491;28;20054;-76
2022/08/28 10:55:58;;;;;;;1.48;0.95;;;28.20;82.50;;;;;;4983126;28;20042;-76
2022/08/28 10:58:26;;;;;;;0.35;0.35;;;28.30;82.60;;;;;;4987755;28;20272;-76
2022/08/28 11:01:01;;;;;;;4.55;0.93;;;28.70;83.00;;;;;;4987366;28;20069;-76
2022/08/28 11:03:30;;;;;;;0.22;0.22;;;29.30;81.10;;;;;;4987136;28;20027;-76
2022/08/28 11:06:04;;;;;;;9.85;1.27;;;29.80;80.10;;;;;;4982461;28;20528;-77
2022/08/28 11:08:35;;;;;;;0.22;0.22;;;30.30;78.50;;;;;;4987751;28;20417;-76
2022/08/28 11:11:03;;;;;;;0.40;0.40;;;30.30;79.60;;;;;;4987609;28;20030;-76
2022/08/28 11:13:50;;;;;;;1.80;1.13;;;30.40;79.80;;;;;;4996840;28;20030;-76
2022/08/28 11:16:20;;;;;;;0.88;0.73;;;30.60;78.30;;;;;;5005978;28;20033;-76
2022/08/28 11:18:51;;;;;;;8.40;0.50;;;30.60;78.20;;;;;;5005494;28;20489;-75
2022/08/28 11:21:29;;;;;;;1.30;0.80;;;30.90;77.50;;;;;;5002274;28;20144;-75
2022/08/28 11:24:08;;;;;;;2.05;1.13;;;31.00;76.90;;;;;;5007121;28;20022;-75
2022/08/28 11:26:57;;;;;;;0.77;0.70;;;30.80;78.00;;;;;;5007147;28;20374;-74
2022/08/28 11:29:57;;;;;;;0.77;0.77;;;30.60;78.80;;;;;;4992026;28;20541;-76
2022/08/28 11:32:32;;;;;;;3.38;1.80;;;30.40;78.50;;;;;;4987289;28;20024;-77
2022/08/28 11:35:00;;;;;;;0.55;0.52;;;30.50;78.50;;;;;;4994568;28;20022;-76
2022/08/28 11:37:41;;;;;;;1.23;1.13;;;30.70;78.10;;;;;;5007620;28;20057;-76
2022/08/28 11:40:39;;;;;;;2.67;1.70;;;30.40;80.10;;;;;;5008940;28;20053;-76
2022/08/28 11:43:14;;;;;;;1.63;1.23;;;29.80;81.10;;;;;;5017956;28;20042;-76
2022/08/28 11:45:45;;;;;;;1.15;1.00;;;29.30;82.70;;;;;;4997547;28;20493;-76
2022/08/28 11:48:38;;;;;;;1.27;0.70;;;29.20;83.00;;;;;;5010090;28;20473;-76
2022/08/28 11:51:08;;;;;;;1.52;1.30;;;28.70;83.80;;;;;;4993731;28;20079;-76
2022/08/28 11:54:17;;;;;;;0.95;0.82;;;28.50;84.00;;;;;;4990787;28;20034;-76
2022/08/28 11:57:03;;;;;;;1.48;1.23;;;28.20;85.10;;;;;;5000735;28;20063;-76
2022/08/28 11:59:32;;;;;;;2.60;1.63;;;28.00;85.50;;;;;;4991758;28;20062;-76
2022/08/28 12:02:36;;;;;;;1.13;1.02;;;27.80;85.50;;;;;;4990389;28;20060;-76
2022/08/28 12:05:24;;;;;;;7.00;1.95;;;27.80;85.90;;;;;;5000336;28;20030;-77
2022/08/28 12:07:50;;;;;;;0.65;0.65;;;27.80;86.20;;;;;;5023327;28;20393;-76
2022/08/28 12:10:18;;;;;;;;;;;27.80;86.50;;;;;;5009151;28;20038;-76
2022/08/28 12:12:44;;;;;;;2.47;2.28;;;27.80;87.00;;;;;;5008646;28;20004;-76
2022/08/28 12:15:30;;;;;;;2.47;0.73;;;27.60;86.10;;;;;;5006818;28;20117;-75
2022/08/28 12:18:01;;;;;;;0.73;0.73;;;27.50;87.30;;;;;;5009333;28;20393;-76
2022/08/28 12:20:29;;;;;;;1.40;1.30;;;27.30;87.50;;;;;;4997962;28;20046;-76
2022/08/28 12:22:58;;;;;;;4.25;1.55;;;27.10;88.60;;;;;;4987674;28;20331;-69
2022/08/28 12:25:35;;;;;;;2.90;2.28;;;27.00;89.70;;;;;;4986237;28;20048;-69
2022/08/28 12:28:26;;;;;;;1.23;1.15;;;27.00;90.30;;;;;;4987145;28;20038;-69
2022/08/28 12:31:03;;;;;;;1.33;1.23;;;27.00;90.20;;;;;;4976896;28;20023;-69
2022/08/28 12:33:45;;;;;;;3.28;2.35;;;26.90;90.20;;;;;;4986893;28;20601;-69
2022/08/28 12:36:15;;;;;;;1.42;1.10;;;26.90;90.00;;;;;;4975924;28;20388;-69
2022/08/28 12:38:48;;;;;;;2.33;1.63;;;26.90;90.20;;;;;;4970354;28;20027;-69
2022/08/28 12:41:16;;;;;;;5.70;3.47;;;26.80;89.80;;;;;;4970136;28;20054;-69
2022/08/28 12:43:45;;;;;;;4.93;2.53;;;26.70;90.00;;;;;;4981227;28;20508;-68
2022/08/28 12:46:15;;;;;;;6.07;2.25;;;26.70;89.60;;;;;;4989391;28;20042;-68
2022/08/28 12:49:00;;;;;;;8.73;3.33;;;26.70;89.40;;;;;;4988902;28;20018;-69
2022/08/28 12:51:29;;;;;;;6.45;3.58;;;26.80;89.90;;;;;;4998448;28;20061;-68
2022/08/28 12:54:01;;;;;;;4.13;3.72;;;26.90;90.10;;;;;;5030378;28;20031;-68
2022/08/28 12:56:32;;;;;;;1.98;1.83;;;27.00;89.70;;;;;;4983647;28;20143;-69
2022/08/28 12:59:31;;;;;;;6.70;3.10;;;27.10;89.40;;;;;;4983154;28;20045;-69
2022/08/28 13:02:24;;;;;;;4.75;1.95;;;27.10;89.30;;;;;;4968531;28;20100;-70
2022/08/28 13:04:58;;;;;;;2.72;2.53;;;27.10;89.90;;;;;;4996717;28;20115;-70
2022/08/28 13:07:44;;;;;;;3.50;2.55;;;26.90;90.30;;;;;;4986633;28;20034;-71
2022/08/28 13:10:25;;;;;;;2.08;1.67;;;26.80;90.80;;;;;;4984825;28;20362;-71
2022/08/28 13:13:18;;;;;;;3.50;2.53;;;26.70;90.80;;;;;;4984937;28;20061;-77
2022/08/28 13:16:00;;;;;;;3.13;1.67;;;26.60;90.90;;;;;;4994055;28;20043;-77